Time;durP1;ratioP1;P1;durP2;ratioP2;P2;SDS_P1;SDS_P2;PMS_P1;PMS_P2;Temp;Humidity;BMP_temperature;BMP_pressure;BME280_temperature;BME280_humidity;BME280_pressure;Samples;Min_cycle;Max_cycle;Signal;HPM_P1;HPM_P2
2021/04/09 00:02:16;;;;;;;13.77;7.07;;;6.50;66.30;;;;;;4995824;28;20032;-87
2021/04/09 00:04:42;;;;;;;12.35;7.70;;;6.50;66.80;;;;;;4996115;28;20030;-87
2021/04/09 00:07:08;;;;;;;13.73;7.68;;;6.40;67.10;;;;;;4983339;28;20030;-87
2021/04/09 00:09:34;;;;;;;12.95;8.13;;;6.40;67.30;;;;;;5013282;28;20042;-85
2021/04/09 00:12:00;;;;;;;12.82;7.13;;;6.40;67.50;;;;;;4990928;28;20021;-85
2021/04/09 00:14:26;;;;;;;21.45;7.97;;;6.40;68.10;;;;;;4996132;28;20026;-86
2021/04/09 00:16:52;;;;;;;13.43;8.00;;;6.30;67.80;;;;;;4995554;28;20025;-87
2021/04/09 00:19:20;;;;;;;15.30;7.50;;;6.30;68.10;;;;;;4995304;28;20033;-87
2021/04/09 00:21:46;;;;;;;14.60;8.00;;;6.30;68.20;;;;;;5012900;28;20022;-86
2021/04/09 00:24:12;;;;;;;14.00;7.80;;;6.20;68.10;;;;;;4995452;28;20563;-87
2021/04/09 00:26:39;;;;;;;13.63;8.50;;;6.20;68.30;;;;;;4995761;28;20451;-86
2021/04/09 00:29:05;;;;;;;16.45;8.18;;;6.10;68.90;;;;;;4995313;28;20132;-87
2021/04/09 00:31:32;;;;;;;12.73;7.80;;;6.10;68.80;;;;;;4988316;28;20033;-87
2021/04/09 00:33:59;;;;;;;15.25;8.45;;;6.10;68.80;;;;;;5005110;28;20037;-87
2021/04/09 00:36:25;;;;;;;13.60;8.13;;;6.10;68.70;;;;;;4979638;28;20030;-86
2021/04/09 00:38:50;;;;;;;14.65;8.60;;;6.10;68.90;;;;;;5012813;28;20030;-86
2021/04/09 00:41:17;;;;;;;14.65;8.20;;;6.00;69.00;;;;;;4995269;28;20812;-85
2021/04/09 00:43:43;;;;;;;15.75;8.52;;;6.00;69.30;;;;;;4995761;28;20103;-86
2021/04/09 00:46:09;;;;;;;13.90;8.10;;;5.90;69.40;;;;;;4999242;28;20029;-85
2021/04/09 00:48:35;;;;;;;13.93;8.57;;;5.90;69.50;;;;;;4999140;28;20034;-85
2021/04/09 00:51:01;;;;;;;14.82;7.90;;;5.90;70.00;;;;;;4998938;28;20046;-86
2021/04/09 00:53:30;;;;;;;16.27;8.65;;;5.90;70.00;;;;;;4999320;28;20026;-86
2021/04/09 00:55:56;;;;;;;15.07;8.40;;;5.90;70.20;;;;;;4998646;28;20033;-84
2021/04/09 00:58:21;;;;;;;15.35;8.38;;;5.90;70.30;;;;;;5016479;28;20026;-86
2021/04/09 01:00:48;;;;;;;14.40;8.82;;;5.90;70.20;;;;;;4982952;28;20541;-86
2021/04/09 01:03:14;;;;;;;12.93;8.40;;;5.90;70.20;;;;;;4998811;28;20105;-85
2021/04/09 01:05:41;;;;;;;15.52;7.97;;;5.90;70.40;;;;;;4979526;28;20172;-87
2021/04/09 01:08:07;;;;;;;14.35;8.25;;;5.90;70.50;;;;;;4976861;28;20475;-86
2021/04/09 01:10:33;;;;;;;15.55;8.88;;;5.80;70.70;;;;;;4976837;28;20038;-86
2021/04/09 01:12:58;;;;;;;15.10;9.32;;;5.90;70.90;;;;;;4991494;28;20069;-87
2021/04/09 01:15:24;;;;;;;13.70;8.38;;;5.90;71.10;;;;;;4982760;28;20028;-86
2021/04/09 01:18:07;;;;;;;14.77;8.63;;;5.80;70.90;;;;;;4963025;28;20054;-87
2021/04/09 01:21:01;;;;;;;14.15;8.40;;;5.90;71.10;;;;;;4998657;28;20049;-87
2021/04/09 01:23:42;;;;;;;15.43;9.52;;;5.80;70.70;;;;;;4995292;28;20033;-86
2021/04/09 01:26:23;;;;;;;;;;;5.80;71.00;;;;;;4998847;28;20022;-87
2021/04/09 01:29:18;;;;;;;12.57;8.70;;;5.80;70.80;;;;;;4999011;28;19987;-85
2021/04/09 01:32:04;;;;;;;16.23;8.57;;;5.80;71.20;;;;;;4994274;28;20045;-86
2021/04/09 01:34:35;;;;;;;15.70;7.97;;;5.80;71.10;;;;;;4997678;28;20034;-86
2021/04/09 01:37:20;;;;;;;18.88;8.82;;;5.80;71.00;;;;;;5015834;28;20029;-86
2021/04/09 01:40:07;;;;;;;11.98;7.25;;;5.90;71.00;;;;;;4998501;28;20061;-87
2021/04/09 01:42:36;;;;;;;11.90;7.13;;;5.90;71.20;;;;;;5015973;28;20025;-87
2021/04/09 01:45:04;;;;;;;10.60;7.05;;;5.90;71.40;;;;;;5015784;28;20124;-87
2021/04/09 01:47:32;;;;;;;15.63;8.10;;;6.00;71.60;;;;;;5015622;28;20018;-86
2021/04/09 01:50:01;;;;;;;13.80;8.27;;;6.00;71.50;;;;;;4998166;28;20154;-87
2021/04/09 01:52:27;;;;;;;12.23;7.32;;;6.00;71.60;;;;;;4997848;28;20022;-87
2021/04/09 01:54:56;;;;;;;11.68;6.85;;;6.00;71.70;;;;;;4997682;28;20026;-86
2021/04/09 01:57:23;;;;;;;11.52;7.43;;;6.00;72.10;;;;;;4979259;28;20041;-86
2021/04/09 01:59:50;;;;;;;11.98;7.30;;;6.10;72.00;;;;;;5016201;28;20026;-85
2021/04/09 02:02:17;;;;;;;12.55;7.15;;;6.10;71.70;;;;;;4978387;28;20042;-86
2021/04/09 02:04:44;;;;;;;16.30;8.35;;;6.10;71.80;;;;;;5015702;28;20093;-86
2021/04/09 02:07:11;;;;;;;12.75;7.30;;;6.10;71.80;;;;;;4997965;28;20034;-85
2021/04/09 02:09:38;;;;;;;12.75;7.63;;;6.10;72.10;;;;;;5015528;28;20034;-86
2021/04/09 02:12:04;;;;;;;16.15;7.40;;;6.10;72.10;;;;;;4981609;28;20045;-86
2021/04/09 02:14:33;;;;;;;14.98;7.50;;;6.10;72.00;;;;;;4997613;28;20514;-86
2021/04/09 02:17:00;;;;;;;12.05;7.30;;;6.10;72.20;;;;;;4998073;28;20098;-86
2021/04/09 02:19:26;;;;;;;11.80;7.45;;;6.10;73.00;;;;;;4997458;28;20040;-86
2021/04/09 02:21:52;;;;;;;13.40;8.23;;;6.10;72.70;;;;;;4997636;28;20060;-86
2021/04/09 02:24:18;;;;;;;14.65;9.15;;;6.10;72.80;;;;;;5001335;28;20022;-86
2021/04/09 02:26:44;;;;;;;14.82;8.05;;;6.10;72.40;;;;;;4980170;28;20120;-87
2021/04/09 02:29:10;;;;;;;14.25;8.75;;;6.00;73.00;;;;;;4981243;28;20030;-87
2021/04/09 02:31:37;;;;;;;19.63;10.00;;;6.00;72.40;;;;;;4997120;28;20471;-86
2021/04/09 02:34:03;;;;;;;17.10;8.57;;;6.00;72.50;;;;;;4980813;28;20597;-86
2021/04/09 02:36:31;;;;;;;14.40;8.65;;;6.00;72.80;;;;;;4961658;28;20475;-87
2021/04/09 02:39:09;;;;;;;16.73;9.50;;;6.00;72.80;;;;;;4980404;28;20419;-86
2021/04/09 02:41:44;;;;;;;19.55;9.40;;;6.00;72.70;;;;;;4997082;28;20022;-86
2021/04/09 02:44:11;;;;;;;15.90;9.40;;;5.90;72.50;;;;;;4997010;28;20116;-86
2021/04/09 02:46:48;;;;;;;16.13;8.27;;;6.00;72.70;;;;;;5014666;28;20113;-87
2021/04/09 02:49:25;;;;;;;14.52;8.13;;;6.00;72.70;;;;;;4996801;28;20048;-86
2021/04/09 02:51:54;;;;;;;15.82;9.70;;;6.00;72.90;;;;;;4996581;28;20064;-87
2021/04/09 02:54:20;;;;;;;16.70;9.30;;;6.00;72.60;;;;;;5014350;28;20090;-86
2021/04/09 02:56:50;;;;;;;15.70;9.30;;;6.00;72.80;;;;;;4996780;28;20025;-86
2021/04/09 02:59:16;;;;;;;19.73;10.05;;;6.00;72.80;;;;;;4967194;28;20124;-87
2021/04/09 03:01:45;;;;;;;18.48;10.30;;;6.00;73.30;;;;;;5014546;28;20471;-87
2021/04/09 03:04:11;;;;;;;16.35;9.13;;;5.90;72.90;;;;;;4996160;28;20029;-87
2021/04/09 03:06:37;;;;;;;18.27;9.60;;;6.00;73.20;;;;;;4964426;28;20037;-86
2021/04/09 03:09:08;;;;;;;16.15;9.25;;;6.00;73.30;;;;;;4996331;28;20480;-87
2021/04/09 03:11:34;;;;;;;17.45;10.13;;;6.00;73.30;;;;;;4996948;28;20018;-87
2021/04/09 03:14:01;;;;;;;16.42;9.00;;;5.90;73.30;;;;;;4978818;28;20053;-87
2021/04/09 03:16:34;;;;;;;17.88;9.50;;;5.90;73.60;;;;;;4979859;28;20030;-86
2021/04/09 03:19:00;;;;;;;16.90;9.52;;;5.90;73.50;;;;;;5013846;28;20094;-86
2021/04/09 03:21:25;;;;;;;18.70;9.80;;;5.90;73.80;;;;;;4984701;28;20059;-86
2021/04/09 03:23:51;;;;;;;16.83;9.38;;;5.90;74.00;;;;;;4975126;28;20161;-86
2021/04/09 03:26:17;;;;;;;16.60;8.60;;;5.90;73.90;;;;;;4993547;28;20446;-86
2021/04/09 03:28:43;;;;;;;13.48;8.13;;;5.90;73.90;;;;;;4996351;28;20098;-86
2021/04/09 03:31:08;;;;;;;15.45;9.20;;;5.90;73.80;;;;;;4963566;28;20034;-86
2021/04/09 03:33:34;;;;;;;16.88;9.20;;;5.90;73.70;;;;;;4996110;28;20041;-85
2021/04/09 03:35:59;;;;;;;17.30;9.00;;;6.00;74.10;;;;;;5013279;28;20032;-86
2021/04/09 03:38:25;;;;;;;17.40;9.18;;;5.90;73.90;;;;;;4976144;28;20102;-86
2021/04/09 03:40:51;;;;;;;17.10;8.75;;;5.90;73.60;;;;;;4987159;28;20426;-85
2021/04/09 03:43:17;;;;;;;16.83;8.85;;;5.90;73.80;;;;;;4995826;28;20520;-86
2021/04/09 03:45:43;;;;;;;16.02;8.70;;;5.90;73.90;;;;;;4976918;28;20030;-85
2021/04/09 03:48:09;;;;;;;19.05;9.40;;;5.90;74.10;;;;;;4991139;28;20045;-85
2021/04/09 03:50:36;;;;;;;12.80;8.57;;;6.00;73.80;;;;;;4995189;28;20029;-86
2021/04/09 03:53:06;;;;;;;15.38;8.27;;;5.90;74.00;;;;;;4994919;28;20095;-85
2021/04/09 03:55:32;;;;;;;16.42;8.85;;;5.90;73.90;;;;;;4995413;28;20500;-86
2021/04/09 03:57:58;;;;;;;16.08;8.65;;;5.90;74.10;;;;;;5013615;28;20026;-85
2021/04/09 04:00:24;;;;;;;15.25;7.80;;;6.00;74.10;;;;;;4978992;28;20030;-86
2021/04/09 04:02:50;;;;;;;12.75;8.45;;;5.90;74.30;;;;;;4995731;28;20426;-86
2021/04/09 04:05:17;;;;;;;15.30;8.38;;;5.90;74.20;;;;;;4979187;28;20034;-86
2021/04/09 04:07:43;;;;;;;14.43;8.30;;;5.90;74.20;;;;;;5013387;28;20032;-86
2021/04/09 04:10:09;;;;;;;15.60;8.30;;;5.90;74.20;;;;;;5012234;28;20026;-86
2021/04/09 04:12:35;;;;;;;16.30;8.40;;;5.90;74.20;;;;;;4979360;28;20030;-86
2021/04/09 04:15:01;;;;;;;14.75;8.48;;;5.90;74.40;;;;;;4995441;28;20048;-87
2021/04/09 04:17:26;;;;;;;15.70;7.93;;;5.90;74.50;;;;;;4979398;28;20145;-86
2021/04/09 04:19:52;;;;;;;15.43;9.07;;;5.90;74.60;;;;;;4978762;28;20034;-86
2021/04/09 04:22:18;;;;;;;14.95;8.30;;;5.90;74.60;;;;;;4995134;28;20044;-86
2021/04/09 04:24:44;;;;;;;14.75;8.38;;;5.80;74.90;;;;;;4995246;28;20080;-86
2021/04/09 04:27:09;;;;;;;13.95;7.80;;;5.80;74.90;;;;;;4979025;28;20025;-86
2021/04/09 04:29:35;;;;;;;14.50;7.78;;;5.80;74.80;;;;;;5012504;28;20037;-85
2021/04/09 04:32:01;;;;;;;14.02;8.02;;;5.80;75.10;;;;;;4980313;28;20507;-86
2021/04/09 04:34:26;;;;;;;13.63;8.40;;;5.80;75.20;;;;;;4979896;28;20030;-87
2021/04/09 04:36:52;;;;;;;11.82;7.47;;;5.80;75.30;;;;;;4995200;28;20359;-86
2021/04/09 04:39:19;;;;;;;12.32;7.57;;;5.90;75.60;;;;;;4987517;28;20174;-88
2021/04/09 04:41:46;;;;;;;17.13;7.80;;;5.80;75.60;;;;;;4989013;28;20038;-87
2021/04/09 04:44:11;;;;;;;15.05;8.75;;;5.80;75.10;;;;;;4992719;28;20025;-86
2021/04/09 04:46:38;;;;;;;13.77;7.70;;;5.90;75.30;;;;;;4979181;28;20033;-88
2021/04/09 04:49:04;;;;;;;16.30;8.57;;;5.90;75.50;;;;;;4995361;28;20060;-87
2021/04/09 04:51:29;;;;;;;12.73;8.25;;;5.90;75.50;;;;;;4979582;28;20058;-86
2021/04/09 04:53:55;;;;;;;14.95;7.82;;;5.80;75.30;;;;;;4995293;28;20021;-86
2021/04/09 04:56:21;;;;;;;14.57;7.75;;;5.80;75.40;;;;;;4992225;28;20058;-87
2021/04/09 04:58:47;;;;;;;13.75;7.68;;;5.80;75.50;;;;;;4995927;28;20029;-86
2021/04/09 05:01:12;;;;;;;12.70;7.05;;;5.80;75.70;;;;;;4994907;28;20030;-87
2021/04/09 05:03:38;;;;;;;12.70;7.72;;;5.80;75.60;;;;;;4979912;28;20515;-86
2021/04/09 05:06:04;;;;;;;13.15;7.22;;;5.80;75.70;;;;;;4995238;28;20029;-87
2021/04/09 05:08:29;;;;;;;14.07;7.72;;;5.80;76.00;;;;;;4995463;28;20030;-88
2021/04/09 05:10:55;;;;;;;14.50;7.40;;;5.80;76.10;;;;;;4977743;28;20045;-87
2021/04/09 05:13:21;;;;;;;13.25;7.80;;;5.80;76.20;;;;;;4978456;28;20033;-87
2021/04/09 05:15:46;;;;;;;14.40;7.85;;;5.80;76.30;;;;;;4978747;28;20030;-87
2021/04/09 05:18:12;;;;;;;14.55;7.35;;;5.80;76.20;;;;;;4978410;28;20072;-87
2021/04/09 05:20:38;;;;;;;15.82;7.97;;;5.80;76.30;;;;;;4979217;28;20652;-86
2021/04/09 05:23:03;;;;;;;13.43;7.43;;;5.80;76.40;;;;;;4995343;28;20179;-88
2021/04/09 05:25:29;;;;;;;15.63;8.25;;;5.80;76.30;;;;;;4979085;28;20037;-87
2021/04/09 05:27:55;;;;;;;15.18;8.00;;;5.80;76.50;;;;;;4970539;28;20031;-87
2021/04/09 05:30:21;;;;;;;13.25;7.63;;;5.70;76.60;;;;;;4990450;28;20034;-87
2021/04/09 05:32:48;;;;;;;11.93;6.82;;;5.70;76.50;;;;;;5016400;28;20022;-87
2021/04/09 05:35:15;;;;;;;13.57;7.70;;;5.80;76.80;;;;;;4982037;28;20026;-87
2021/04/09 05:37:40;;;;;;;11.88;7.50;;;5.80;76.80;;;;;;4966110;28;20057;-87
2021/04/09 05:40:07;;;;;;;11.15;7.32;;;5.80;77.00;;;;;;4998488;28;20093;-87
2021/04/09 05:42:32;;;;;;;14.98;7.35;;;5.80;77.00;;;;;;4998326;28;20478;-87
2021/04/09 05:44:58;;;;;;;12.43;7.47;;;5.80;77.00;;;;;;4962927;28;20037;-86
2021/04/09 05:47:26;;;;;;;15.23;8.82;;;5.80;76.90;;;;;;4981521;28;20034;-86
2021/04/09 05:49:51;;;;;;;12.40;6.93;;;5.80;77.00;;;;;;4963198;28;20038;-86
2021/04/09 05:52:17;;;;;;;14.73;8.73;;;5.80;77.00;;;;;;4998261;28;20013;-87
2021/04/09 05:54:43;;;;;;;17.52;8.02;;;5.80;77.10;;;;;;4978386;28;20027;-87
2021/04/09 05:57:09;;;;;;;13.43;8.30;;;5.80;76.90;;;;;;4982100;28;20081;-87
2021/04/09 05:59:35;;;;;;;12.32;7.13;;;5.80;77.00;;;;;;4980708;28;20556;-87
2021/04/09 06:02:00;;;;;;;11.77;7.32;;;5.80;77.10;;;;;;4981928;28;20130;-87
2021/04/09 06:04:26;;;;;;;10.82;6.82;;;5.80;77.20;;;;;;4997396;28;20029;-87
2021/04/09 06:06:51;;;;;;;14.40;7.60;;;5.80;77.30;;;;;;4998271;28;20026;-88
2021/04/09 06:09:17;;;;;;;13.75;7.80;;;5.90;77.60;;;;;;4997759;28;20034;-88
2021/04/09 06:11:43;;;;;;;13.98;7.85;;;5.90;77.50;;;;;;4997501;28;20030;-88
2021/04/09 06:14:10;;;;;;;17.13;9.13;;;5.90;78.00;;;;;;4978149;28;20030;-88
2021/04/09 06:16:35;;;;;;;17.38;8.05;;;5.90;77.40;;;;;;4981828;28;20905;-88
2021/04/09 06:19:01;;;;;;;15.80;7.85;;;5.90;77.50;;;;;;4965782;28;20028;-86
2021/04/09 06:21:28;;;;;;;14.23;7.45;;;6.00;77.20;;;;;;4981435;28;20053;-86
2021/04/09 06:23:54;;;;;;;13.48;7.90;;;6.00;77.40;;;;;;4998021;28;20036;-88
2021/04/09 06:26:19;;;;;;;14.70;7.65;;;6.10;77.50;;;;;;4997468;28;20429;-88
2021/04/09 06:28:48;;;;;;;14.02;8.18;;;6.10;77.10;;;;;;4967712;28;20033;-88
2021/04/09 06:31:13;;;;;;;10.85;7.45;;;6.10;77.40;;;;;;4997015;28;20037;-88
2021/04/09 06:33:39;;;;;;;12.90;7.53;;;6.20;77.50;;;;;;4996563;28;20040;-88
2021/04/09 06:36:05;;;;;;;20.70;7.97;;;6.20;77.70;;;;;;4977897;28;20039;-87
2021/04/09 06:38:31;;;;;;;15.05;7.45;;;6.30;77.30;;;;;;4990939;28;20038;-88
2021/04/09 06:40:57;;;;;;;12.25;7.70;;;6.40;77.50;;;;;;4967487;28;20058;-87
2021/04/09 06:43:23;;;;;;;14.88;8.00;;;6.40;77.30;;;;;;4980076;28;20102;-87
2021/04/09 06:45:50;;;;;;;12.45;7.78;;;6.50;76.80;;;;;;4997340;28;20065;-86
2021/04/09 06:48:15;;;;;;;15.80;8.45;;;6.60;76.60;;;;;;4997207;28;20033;-87
2021/04/09 06:50:41;;;;;;;13.93;7.35;;;6.60;76.50;;;;;;4980939;28;20075;-87
2021/04/09 06:53:07;;;;;;;10.50;6.65;;;6.70;76.80;;;;;;4980932;28;20026;-87
2021/04/09 06:55:33;;;;;;;13.00;6.57;;;6.70;76.70;;;;;;4960980;28;20038;-87
2021/04/09 06:58:01;;;;;;;12.25;7.47;;;6.80;76.40;;;;;;4979974;28;20030;-87
2021/04/09 07:00:31;;;;;;;12.90;7.75;;;6.80;76.80;;;;;;4980054;28;20061;-87
2021/04/09 07:02:57;;;;;;;11.98;7.28;;;6.90;76.40;;;;;;4985813;28;20032;-86
2021/04/09 07:05:23;;;;;;;16.95;7.15;;;6.90;76.20;;;;;;5008429;28;20057;-87
2021/04/09 07:07:49;;;;;;;12.27;6.65;;;7.00;76.00;;;;;;4980896;28;20053;-86
2021/04/09 07:10:15;;;;;;;12.93;7.40;;;7.00;76.10;;;;;;4975856;28;20066;-87
2021/04/09 07:12:41;;;;;;;12.23;7.55;;;7.00;76.50;;;;;;5013124;28;20029;-87
2021/04/09 07:15:14;;;;;;;11.30;6.60;;;7.10;76.20;;;;;;4996468;28;20030;-87
2021/04/09 07:17:47;;;;;;;11.68;6.60;;;7.10;76.10;;;;;;4994262;28;20045;-86
2021/04/09 07:20:23;;;;;;;9.57;6.15;;;7.20;76.20;;;;;;5012654;28;20045;-87
2021/04/09 07:22:59;;;;;;;13.25;6.85;;;7.20;76.40;;;;;;4992867;28;20478;-87
2021/04/09 07:25:27;;;;;;;12.43;6.90;;;7.30;76.00;;;;;;4992986;28;20508;-88
2021/04/09 07:28:14;;;;;;;11.57;7.03;;;7.30;75.90;;;;;;4992173;28;20041;-86
2021/04/09 07:30:42;;;;;;;11.68;7.00;;;7.40;76.30;;;;;;5011574;28;20053;-88
2021/04/09 07:33:11;;;;;;;11.23;7.45;;;7.50;76.10;;;;;;4991603;28;20041;-89
2021/04/09 07:35:51;;;;;;;13.27;6.93;;;7.50;75.80;;;;;;4984595;28;20034;-87
2021/04/09 07:38:36;;;;;;;10.20;6.47;;;7.60;76.00;;;;;;4980009;28;20017;-89
2021/04/09 07:41:06;;;;;;;12.95;7.15;;;7.60;76.20;;;;;;4989766;28;20790;-88
2021/04/09 07:43:33;;;;;;;13.77;6.53;;;7.70;76.40;;;;;;4989858;28;20038;-89
2021/04/09 07:46:01;;;;;;;11.02;6.30;;;7.70;76.30;;;;;;4994717;28;20018;-87
2021/04/09 07:48:31;;;;;;;14.07;6.57;;;7.80;76.30;;;;;;5008222;28;20034;-88
2021/04/09 07:50:58;;;;;;;11.10;6.78;;;7.90;76.20;;;;;;4991476;28;20038;-90
2021/04/09 07:53:29;;;;;;;11.75;7.07;;;8.00;76.00;;;;;;4975713;28;20030;-88
2021/04/09 07:56:03;;;;;;;10.30;6.28;;;8.10;76.30;;;;;;5012719;28;20018;-88
2021/04/09 07:58:28;;;;;;;13.13;7.43;;;8.10;75.90;;;;;;4973628;28;20026;-89
2021/04/09 08:00:54;;;;;;;12.90;6.82;;;8.30;75.50;;;;;;5009924;28;20037;-89
2021/04/09 08:03:37;;;;;;;9.25;6.53;;;8.30;75.50;;;;;;4975763;28;20018;-90
2021/04/09 08:06:17;;;;;;;11.65;7.28;;;8.30;74.80;;;;;;4992424;28;20597;-88
2021/04/09 08:08:48;;;;;;;12.93;6.85;;;8.40;74.90;;;;;;5016403;28;20018;-87
2021/04/09 08:11:33;;;;;;;10.43;6.40;;;8.40;75.30;;;;;;4997883;28;20042;-89
2021/04/09 08:14:13;;;;;;;12.35;6.68;;;8.50;76.10;;;;;;5000362;28;20034;-88
2021/04/09 08:16:46;;;;;;;12.68;6.60;;;8.60;76.10;;;;;;5000390;28;20053;-90
2021/04/09 08:19:15;;;;;;;9.52;5.88;;;8.70;76.10;;;;;;4995633;28;20030;-89
2021/04/09 08:21:43;;;;;;;9.45;6.13;;;8.90;76.00;;;;;;5013003;28;20497;-86
2021/04/09 08:24:10;;;;;;;11.57;7.18;;;9.00;76.20;;;;;;4995145;28;20500;-85
2021/04/09 08:26:38;;;;;;;12.60;6.28;;;9.00;75.60;;;;;;4994652;28;20413;-85
2021/04/09 08:29:07;;;;;;;10.05;5.95;;;9.00;75.00;;;;;;4998591;28;20026;-85
2021/04/09 08:31:33;;;;;;;9.48;5.80;;;9.10;74.60;;;;;;4993775;28;20408;-88
2021/04/09 08:33:59;;;;;;;9.82;6.30;;;9.10;74.70;;;;;;4995476;28;20149;-89
2021/04/09 08:36:26;;;;;;;9.60;6.15;;;9.10;74.80;;;;;;4978850;28;20470;-87
2021/04/09 08:38:54;;;;;;;10.73;5.78;;;9.10;74.50;;;;;;5012317;28;20029;-87
2021/04/09 08:41:20;;;;;;;10.25;5.88;;;9.10;74.50;;;;;;4994822;28;20100;-87
2021/04/09 08:43:46;;;;;;;11.23;5.95;;;9.20;74.70;;;;;;4998713;28;20125;-87
2021/04/09 08:46:12;;;;;;;11.05;6.53;;;9.20;74.90;;;;;;4977951;28;20117;-86
2021/04/09 08:48:39;;;;;;;9.80;6.53;;;9.20;74.50;;;;;;4994543;28;20518;-86
2021/04/09 08:51:07;;;;;;;12.18;6.78;;;9.20;74.30;;;;;;5013182;28;20488;-87
2021/04/09 08:53:33;;;;;;;10.77;6.72;;;9.30;74.60;;;;;;4995636;28;20033;-87
2021/04/09 08:55:59;;;;;;;10.95;6.35;;;9.30;75.20;;;;;;4994761;28;20029;-87
2021/04/09 08:58:25;;;;;;;11.52;6.88;;;9.40;75.00;;;;;;4994850;28;20092;-87
2021/04/09 09:00:52;;;;;;;10.23;6.68;;;9.50;74.20;;;;;;4992690;28;20453;-87
2021/04/09 09:03:29;;;;;;;11.43;7.20;;;9.50;74.50;;;;;;4983565;28;20099;-87
2021/04/09 09:06:00;;;;;;;12.82;6.95;;;9.60;73.20;;;;;;5013239;28;20076;-87
2021/04/09 09:08:44;;;;;;;11.32;7.03;;;9.60;73.40;;;;;;4986799;28;20042;-86
2021/04/09 09:11:34;;;;;;;12.23;6.35;;;9.60;73.40;;;;;;4998164;28;20076;-87
2021/04/09 09:14:00;;;;;;;10.82;6.15;;;9.70;73.30;;;;;;4997741;28;20045;-87
2021/04/09 09:16:35;;;;;;;11.23;6.88;;;9.70;73.00;;;;;;4997607;28;20038;-88
2021/04/09 09:19:01;;;;;;;10.57;6.40;;;9.80;73.50;;;;;;4997203;28;20088;-87
2021/04/09 09:21:33;;;;;;;11.15;6.75;;;9.90;72.80;;;;;;4997994;28;20037;-88
2021/04/09 09:24:04;;;;;;;10.48;6.25;;;10.00;73.10;;;;;;4998017;28;20481;-87
2021/04/09 09:26:41;;;;;;;9.65;6.20;;;10.00;72.90;;;;;;4997677;28;20064;-89
2021/04/09 09:29:27;;;;;;;9.70;5.72;;;10.20;72.80;;;;;;5004115;28;20463;-88
2021/04/09 09:32:04;;;;;;;10.88;5.75;;;10.30;72.30;;;;;;5016573;28;20168;-89
2021/04/09 09:34:35;;;;;;;9.85;5.70;;;10.30;71.10;;;;;;4994684;28;20019;-86
2021/04/09 09:37:16;;;;;;;11.63;6.30;;;10.40;71.20;;;;;;5007134;28;20014;-89
2021/04/09 09:39:52;;;;;;;11.32;5.75;;;10.50;71.40;;;;;;4979913;28;20130;-88
2021/04/09 09:42:20;;;;;;;11.15;6.28;;;10.60;70.80;;;;;;4996327;28;20049;-89
2021/04/09 09:44:56;;;;;;;12.70;6.70;;;10.70;70.90;;;;;;4991432;28;20061;-89
2021/04/09 09:47:33;;;;;;;9.95;5.70;;;10.80;70.70;;;;;;4997704;28;20485;-89
2021/04/09 09:50:11;;;;;;;9.55;5.72;;;10.80;71.10;;;;;;4997532;28;20025;-89
2021/04/09 09:53:00;;;;;;;8.68;5.30;;;10.90;70.60;;;;;;4985807;28;20030;-88
2021/04/09 09:55:28;;;;;;;8.05;5.70;;;11.00;71.70;;;;;;4982433;28;20031;-89
2021/04/09 09:58:02;;;;;;;11.07;5.72;;;11.10;71.00;;;;;;5007714;28;20310;-87
2021/04/09 10:00:32;;;;;;;11.00;6.30;;;11.20;69.30;;;;;;4997686;28;20030;-89
2021/04/09 10:03:11;;;;;;;9.65;5.82;;;11.30;70.20;;;;;;4985309;28;20027;-88
2021/04/09 10:05:37;;;;;;;13.25;6.43;;;11.30;70.40;;;;;;4994907;28;20026;-88
2021/04/09 10:08:07;;;;;;;9.85;5.30;;;11.40;69.80;;;;;;4997114;28;20048;-87
2021/04/09 10:11:07;;;;;;;10.95;5.35;;;11.50;68.90;;;;;;5014257;28;20022;-86
2021/04/09 10:13:39;;;;;;;9.35;5.00;;;11.50;69.00;;;;;;4959440;28;20042;-87
2021/04/09 10:16:18;;;;;;;8.45;4.47;;;11.60;70.70;;;;;;4996533;28;20434;-87
2021/04/09 10:18:52;;;;;;;5.97;4.10;;;11.80;70.20;;;;;;4996916;28;20026;-89
2021/04/09 10:21:19;;;;;;;7.15;4.45;;;11.90;70.00;;;;;;4984115;28;20022;-86
2021/04/09 10:23:49;;;;;;;8.32;4.90;;;12.00;68.20;;;;;;4996453;28;20114;-88
2021/04/09 10:26:22;;;;;;;8.07;4.90;;;12.20;66.30;;;;;;4990349;28;20082;-96
2021/04/09 10:28:48;;;;;;;8.00;5.07;;;12.20;67.20;;;;;;4997024;28;20099;-89
2021/04/09 10:31:21;;;;;;;8.48;4.95;;;12.30;67.90;;;;;;4996564;28;20489;-89
2021/04/09 10:33:50;;;;;;;8.25;5.13;;;12.40;68.00;;;;;;5014427;28;20034;-89
2021/04/09 10:36:20;;;;;;;8.27;4.50;;;12.50;67.20;;;;;;4995892;28;20021;-86
2021/04/09 10:38:48;;;;;;;8.60;4.63;;;12.50;66.70;;;;;;4996471;28;20034;-89
2021/04/09 10:41:30;;;;;;;7.47;4.35;;;12.60;66.80;;;;;;5014080;28;20116;-90
2021/04/09 10:43:57;;;;;;;7.15;3.72;;;12.60;63.90;;;;;;4996900;28;20026;-85
2021/04/09 10:46:24;;;;;;;6.43;3.38;;;12.70;64.30;;;;;;4996889;28;20036;-89
2021/04/09 10:48:50;;;;;;;7.22;3.47;;;12.70;63.50;;;;;;4980103;28;20068;-90
2021/04/09 10:51:16;;;;;;;8.25;3.38;;;12.80;62.40;;;;;;4995567;28;20065;-88
2021/04/09 10:53:42;;;;;;;6.40;3.05;;;12.80;63.60;;;;;;4994883;28;20038;-88
2021/04/09 10:56:10;;;;;;;5.65;3.13;;;12.90;63.20;;;;;;5018669;28;20040;-87
2021/04/09 10:58:37;;;;;;;7.78;2.83;;;12.90;62.80;;;;;;4996122;28;20042;-89
2021/04/09 11:01:04;;;;;;;9.48;3.55;;;13.00;61.80;;;;;;4980652;28;20375;-88
2021/04/09 11:03:31;;;;;;;7.13;3.58;;;13.00;62.60;;;;;;4978598;28;20077;-88
2021/04/09 11:06:00;;;;;;;6.63;3.20;;;13.10;61.90;;;;;;4990969;28;20057;-88
2021/04/09 11:08:34;;;;;;;7.70;3.95;;;13.10;60.70;;;;;;4988949;28;20034;-89
2021/04/09 11:11:13;;;;;;;6.50;4.28;;;13.20;61.70;;;;;;4983077;28;20041;-88
2021/04/09 11:13:41;;;;;;;6.15;3.65;;;13.20;62.20;;;;;;4992547;28;20117;-88
2021/04/09 11:16:11;;;;;;;7.47;3.80;;;13.30;64.00;;;;;;5013657;28;20125;-88
2021/04/09 11:18:57;;;;;;;5.70;2.83;;;13.50;63.90;;;;;;4996189;28;20057;-89
2021/04/09 11:21:45;;;;;;;4.88;2.50;;;13.60;60.20;;;;;;5014088;28;20026;-87
2021/04/09 11:24:14;;;;;;;7.13;2.60;;;13.70;59.90;;;;;;4988118;28;20026;-88
2021/04/09 11:26:40;;;;;;;6.20;3.05;;;13.80;58.80;;;;;;4997465;28;20532;-86
2021/04/09 11:29:06;;;;;;;6.25;3.40;;;13.80;58.50;;;;;;4996572;28;20038;-87
2021/04/09 11:31:32;;;;;;;5.75;3.33;;;13.70;58.70;;;;;;4996191;28;20398;-87
2021/04/09 11:34:04;;;;;;;6.50;2.80;;;13.80;58.30;;;;;;4995883;28;20454;-87
2021/04/09 11:36:38;;;;;;;3.05;2.20;;;13.80;58.20;;;;;;4991882;28;20057;-88
2021/04/09 11:39:14;;;;;;;4.07;2.55;;;13.90;60.00;;;;;;4989305;28;20480;-88
2021/04/09 11:41:41;;;;;;;4.28;2.40;;;13.90;58.00;;;;;;4994752;28;20054;-85
2021/04/09 11:44:27;;;;;;;3.80;2.20;;;14.00;60.20;;;;;;4994395;28;20080;-88
2021/04/09 11:46:54;;;;;;;3.53;2.00;;;14.20;59.00;;;;;;5012640;28;20065;-89
2021/04/09 11:49:29;;;;;;;2.78;1.80;;;14.20;57.30;;;;;;4995019;28;20097;-89
2021/04/09 11:52:00;;;;;;;3.58;1.73;;;14.20;57.00;;;;;;5012669;28;20037;-88
2021/04/09 11:54:52;;;;;;;3.67;1.83;;;14.10;56.10;;;;;;4995331;28;20052;-87
2021/04/09 11:57:21;;;;;;;4.95;2.00;;;14.10;57.70;;;;;;5010614;28;20162;-87
2021/04/09 11:59:47;;;;;;;3.00;1.98;;;14.10;59.20;;;;;;4994739;28;20026;-88
2021/04/09 12:02:26;;;;;;;3.25;2.08;;;14.20;58.80;;;;;;4979197;28;20030;-88
2021/04/09 12:04:53;;;;;;;4.03;2.35;;;14.10;57.70;;;;;;4994999;28;20133;-88
2021/04/09 12:07:28;;;;;;;3.17;1.85;;;14.10;57.20;;;;;;4996928;28;20030;-89
2021/04/09 12:09:58;;;;;;;3.47;2.13;;;14.00;60.10;;;;;;4994718;28;20030;-89
2021/04/09 12:12:25;;;;;;;3.80;2.00;;;14.10;58.30;;;;;;4979208;28;20184;-87
2021/04/09 12:14:53;;;;;;;4.07;2.15;;;14.20;56.10;;;;;;5011679;28;20119;-88
2021/04/09 12:17:20;;;;;;;4.30;2.10;;;14.10;57.20;;;;;;5012552;28;20030;-87
2021/04/09 12:19:48;;;;;;;3.85;2.40;;;14.20;59.30;;;;;;4979036;28;20126;-89
2021/04/09 12:22:14;;;;;;;2.97;2.08;;;14.20;58.20;;;;;;5012449;28;20033;-87
2021/04/09 12:24:40;;;;;;;4.13;2.35;;;14.20;58.70;;;;;;4995752;28;20037;-88
2021/04/09 12:27:07;;;;;;;2.83;1.90;;;14.30;59.20;;;;;;4995496;28;20117;-86
2021/04/09 12:29:33;;;;;;;4.10;2.00;;;14.40;58.50;;;;;;4998166;28;20026;-85
2021/04/09 12:32:00;;;;;;;5.38;2.13;;;14.40;58.00;;;;;;4995445;28;20038;-90
2021/04/09 12:34:26;;;;;;;3.38;1.98;;;14.60;57.40;;;;;;5012458;28;20018;-89
2021/04/09 12:36:52;;;;;;;2.67;1.85;;;14.70;57.00;;;;;;4987590;28;20085;-91
2021/04/09 12:39:19;;;;;;;2.78;1.83;;;14.80;57.20;;;;;;4981794;28;20057;-90
2021/04/09 12:41:45;;;;;;;3.00;1.70;;;14.80;54.30;;;;;;5015652;28;20568;-92
2021/04/09 12:44:13;;;;;;;2.00;1.50;;;14.80;56.00;;;;;;4999044;28;20038;-92
2021/04/09 12:46:39;;;;;;;2.28;1.50;;;14.90;56.60;;;;;;4983098;28;20030;-89
2021/04/09 12:49:05;;;;;;;3.15;1.77;;;15.00;55.50;;;;;;4982558;28;20511;-90
2021/04/09 12:51:31;;;;;;;5.97;1.70;;;15.10;54.20;;;;;;4967624;28;20037;-90
2021/04/09 12:53:57;;;;;;;2.88;1.80;;;15.20;52.60;;;;;;4979462;28;20030;-89
2021/04/09 12:56:23;;;;;;;3.13;1.60;;;15.30;54.50;;;;;;5014765;28;20098;-89
2021/04/09 12:58:48;;;;;;;3.03;1.38;;;15.40;54.10;;;;;;4999064;28;20026;-88